CheckWX is a tool to help pilots better visualize weather data.  It is not intended as a substitute for an official pre-flight weather briefing.

04:23:41 UTC

KMNH METAR
Monument Pass Airport
Monument Pass, Colorado, USA
Current

18 mins ago

KMNH 180406Z AUTO 07007KT 7SM -SN OVC016 M10/M13 A2995 RMK AO2
Observed
Feb-18 @ 04:06 UTC
Wind
  • 070° at 7 KTS
Visibility
7 SM
Flight Rules
MVFR
Conditions
Light Snow
Cloud Levels
  • Overcast at 1,600' AGL
Temperature
-10°C / 14°F
Dewpoint
-13°C / 9°F
Humidity
79%
Altimeter
29.95" Hg
Pressure
1014.22 hPa
Previous

36 mins ago

KMNH 180348Z AUTO 06009KT 10SM -SN OVC014 M10/M13 A2994 RMK AO2
Observed
Feb-18 @ 03:48 UTC
Wind
  • 060° at 9 KTS
Visibility
10 SM
Flight Rules
MVFR
Conditions
Light Snow
Cloud Levels
  • Overcast at 1,400' AGL
Temperature
-10°C / 14°F
Dewpoint
-13°C / 9°F
Humidity
79%
Altimeter
29.94" Hg
Pressure
1013.92 hPa
Previous

60 mins ago

KMNH 180324Z AUTO 07006KT 10SM OVC012 M10/M12 A2994 RMK AO2
Observed
Feb-18 @ 03:24 UTC
Wind
  • 070° at 6 KTS
Visibility
10 SM
Flight Rules
MVFR
Cloud Levels
  • Overcast at 1,200' AGL
Temperature
-10°C / 14°F
Dewpoint
-12°C / 10°F
Humidity
85%
Altimeter
29.94" Hg
Pressure
1013.92 hPa